Data for 08/26/2008

Time Sea-Level Adjusted Pressure Absolute Pressure Temperature Relative Humidity Dew Point   
(mb) (inHg) (mb) (inHg) (C) (F) (%) (C) (F)
00:05 1007 29.74 836 24.69 26 78.8 15 -2.5 27.4
00:10 1007 29.74 836 24.69 25.8 78.4 15 -2.2 28
00:15 1007 29.74 836 24.69 26 78.8 15 -2.6 27.2
00:20 1007 29.74 836 24.69 26 78.8 15 -2.3 27.9
00:25 1007 29.74 836 24.69 25.7 78.3 15 -2.6 27.4
00:30 1007 29.74 836 24.69 26.1 78.9 16 -1.4 29.4
00:35 1007 29.74 836 24.69 25.1 77.1 18 -0.4 31.3
00:40 1007 29.74 836 24.69 24 75.1 21 0.4 32.7
00:45 1007 29.74 836 24.69 23.2 73.7 20 -0.7 30.7
00:50 1007 29.74 836 24.69 23.2 73.8 20 -0.7 30.7
00:55 1007 29.74 836 24.69 23 73.4 22 0.1 32.2
01:00 1007 29.74 836 24.69 22.5 72.5 23 0.7 33.2
01:05 1007 29.74 836 24.69 21.9 71.4 26 1.8 35.2
01:10 1007 29.74 836 24.69 21.2 70.2 29 2.9 37.2
01:15 1007 29.74 837 24.72 20.7 69.2 32 3.5 38.3
01:20 1007 29.74 837 24.72 20.1 68.1 34 4 39.3
01:25 1008 29.77 837 24.72 19.6 67.2 36 4.4 39.9
01:30 1008 29.77 837 24.72 19.4 66.9 37 4.5 40
01:35 1008 29.77 837 24.72 19.4 66.9 37 4.4 39.9
01:40 1008 29.77 837 24.72 19.3 66.8 38 4.6 40.4
01:45 1008 29.77 837 24.72 19.2 66.6 37 4.5 40.1
01:50 1008 29.77 837 24.72 19.1 66.4 38 4.7 40.4
01:55 1008 29.77 837 24.72 18.9 66 40 5 41
02:00 1008 29.77 838 24.75 18.8 65.8 40 5 41
02:05 1009 29.8 838 24.75 18.7 65.6 40 5 41
02:10 1009 29.8 838 24.75 18.5 65.3 42 5.6 42.1
02:15 1009 29.8 838 24.75 18.2 64.8 44 5.7 42.3
02:20 1009 29.8 839 24.78 18 64.4 44 5.8 42.4
02:25 1009 29.8 839 24.78 17.8 64 45 5.8 42.5
02:30 1010 29.83 839 24.78 17.6 63.7 45 5.8 42.4
02:35 1010 29.83 839 24.78 17.5 63.5 46 5.8 42.5
02:40 1010 29.83 839 24.78 17.3 63.1 46 5.7 42.3
02:45 1010 29.83 839 24.78 17.2 62.9 46 5.7 42.3
02:50 1010 29.83 839 24.78 17.1 62.7 46 5.6 42.1
02:55 1011 29.85 840 24.81 17 62.5 47 5.6 42.1
03:00 1011 29.85 840 24.81 16.9 62.4 47 5.6 42
03:05 1010 29.83 839 24.78 16.8 62.2 47 5.5 41.9
03:10 1011 29.85 840 24.81 16.8 62.2 47 5.6 42.1
03:15 1011 29.85 840 24.81 16.6 61.9 48 5.7 42.3
03:20 1011 29.85 840 24.81 16.5 61.7 48 5.6 42.1
03:25 1011 29.85 840 24.81 16.5 61.6 48 5.6 42
03:30 1011 29.85 840 24.81 16.4 61.5 49 5.7 42.3
03:35 1011 29.85 840 24.81 16.3 61.3 49 5.8 42.4
03:40 1011 29.85 840 24.81 16.1 60.9 50 5.8 42.5
03:45 1011 29.85 840 24.81 16 60.8 50 5.7 42.3
03:50 1011 29.85 840 24.81 16 60.7 51 5.8 42.5
03:55 1011 29.85 840 24.81 15.9 60.6 51 6 42.7
04:00 1012 29.88 841 24.83 15.5 59.9 53 6.1 43
04:05 1012 29.88 841 24.83 15.4 59.6 52 5.7 42.3
04:10 1012 29.88 841 24.83 15.5 60 53 6.1 43.1
04:15 1012 29.88 841 24.83 15.6 60.2 52 5.8 42.4
04:20 1012 29.88 841 24.83 15.6 60 53 6 42.8
04:25 1012 29.88 841 24.83 15.4 59.7 53 6 42.7
04:30 1012 29.88 841 24.83 15.2 59.4 54 6 42.7
04:35 1012 29.88 841 24.83 15.1 59.2 54 6.1 42.9
04:40 1012 29.88 841 24.83 15 59.1 54 5.9 42.7
04:45 1012 29.88 842 24.86 14.9 58.9 55 6 42.8
04:50 1013 29.91 842 24.86 14.8 58.6 55 5.9 42.6
04:55 1013 29.91 842 24.86 14.7 58.4 55 5.9 42.7
05:00 1013 29.91 842 24.86 14.6 58.3 55 5.7 42.3
05:05 1013 29.91 842 24.86 14.5 58.1 55 5.8 42.4
05:10 1013 29.91 842 24.86 14.3 57.7 56 5.6 42.1
05:15 1013 29.91 842 24.86 14.2 57.6 56 5.6 42
05:20 1013 29.91 842 24.86 14.2 57.5 56 5.6 42
05:25 1013 29.91 842 24.86 14.2 57.5 56 5.6 42
05:30 1013 29.91 842 24.86 14.2 57.5 56 5.6 42
05:35 1013 29.91 842 24.86 14.2 57.5 56 5.7 42.3
05:40 1013 29.91 842 24.86 14.2 57.5 56 5.6 42.1
05:45 1013 29.91 842 24.86 14.2 57.5 56 5.6 42
05:50 1013 29.91 842 24.86 14.1 57.4 56 5.6 42.1
05:55 1013 29.91 842 24.86 14.1 57.4 56 5.6 42.1
06:00 1013 29.91 842 24.86 14 57.2 56 5.5 41.8
06:05 1013 29.91 842 24.86 13.8 56.9 56 5.4 41.7
06:10 1013 29.91 842 24.86 13.7 56.7 56 5.3 41.6
06:15 1013 29.91 842 24.86 13.7 56.6 58 5.5 42
06:20 1013 29.91 842 24.86 13.5 56.3 59 5.7 42.3
06:25 1013 29.91 842 24.86 13.2 55.8 59 5.5 41.9
06:30 1013 29.91 842 24.86 13.3 56 59 5.5 41.9
06:35 1013 29.91 842 24.86 13.4 56.2 59 5.6 42.1
06:40 1013 29.91 842 24.86 13.3 55.9 60 5.7 42.3
06:45 1013 29.91 842 24.86 13.2 55.7 60 5.6 42.1
06:50 1013 29.91 843 24.89 13.2 55.7 60 5.5 42
06:55 1013 29.91 843 24.89 13.2 55.8 60 5.6 42.2
07:00 1013 29.91 843 24.89 13.1 55.6 61 5.7 42.3
07:05 1014 29.94 843 24.89 13.1 55.6 61 5.8 42.4
07:10 1014 29.94 843 24.89 13.1 55.6 61 5.9 42.6
07:15 1014 29.94 843 24.89 13.2 55.8 60 5.7 42.2
07:20 1014 29.94 843 24.89 13.2 55.7 60 5.7 42.3
07:25 1014 29.94 843 24.89 13.1 55.5 61 5.7 42.3
07:30 1014 29.94 843 24.89 12.9 55.2 63 6.1 42.9
07:35 1014 29.94 843 24.89 12.7 54.9 62 5.8 42.5
07:40 1014 29.94 843 24.89 12.5 54.6 63 5.8 42.4
07:45 1014 29.94 843 24.89 12.4 54.4 64 5.8 42.4
07:50 1014 29.94 843 24.89 12.4 54.4 64 5.9 42.6
07:55 1014 29.94 843 24.89 12.5 54.5 63 5.8 42.5
08:00 1014 29.94 844 24.92 12.5 54.5 64 6 42.8
08:05 1014 29.94 844 24.92 12.5 54.5 64 5.9 42.7
08:10 1015 29.97 844 24.92 12.6 54.6 63 5.8 42.5
08:15 1015 29.97 844 24.92 12.5 54.4 67 6.5 43.8
08:20 1015 29.97 844 24.92 11.8 53.2 69 6.2 43.2
08:25 1015 29.97 844 24.92 11.8 53.3 69 6.4 43.6
08:30 1015 29.97 844 24.92 11.8 53.3 68 6.2 43.2
08:35 1015 29.97 844 24.92 11.8 53.3 68 6.1 43
08:40 1015 29.97 844 24.92 11.9 53.5 67 6 42.8
08:45 1015 29.97 844 24.92 12.1 53.8 67 6.1 43
08:50 1015 29.97 844 24.92 12.2 53.9 66 6.2 43.1
08:55 1015 29.97 845 24.95 12.3 54.2 66 6.2 43.2
09:00 1015 29.97 845 24.95 12.6 54.6 66 6.4 43.5
09:05 1015 29.97 845 24.95 12.8 55.1 65 6.4 43.6
09:10 1015 29.97 845 24.95 13.1 55.5 64 6.5 43.6
09:15 1015 29.97 845 24.95 13.6 56.4 61 6.3 43.3
09:20 1015 29.97 845 24.95 13.9 56.9 62 6.9 44.4
09:25 1015 29.97 845 24.95 13.8 56.8 61 6.4 43.6
09:30 1016 30 845 24.95 13.7 56.6 62 6.5 43.7
09:35 1016 30 845 24.95 13.5 56.4 63 6.8 44.2
09:40 1016 30 845 24.95 13.3 56 64 6.7 44
09:45 1016 30 845 24.95 13.6 56.4 63 6.8 44.2
09:50 1016 30 845 24.95 13.8 56.8 62 6.7 44
09:55 1016 30 845 24.95 13.8 56.8 62 6.7 44.1
10:00 1016 30 845 24.95 13.7 56.6 63 6.7 44.1
10:05 1016 30 845 24.95 13.7 56.6 60 6.2 43.2
10:10 1016 30 845 24.95 13.7 56.7 59 6 42.7
10:15 1016 30 845 24.95 13.9 56.9 59 6.1 43
10:20 1016 30 845 24.95 13.8 56.9 61 6.6 43.8
10:25 1016 30 845 24.95 14 57.2 59 6.1 42.9
10:30 1016 30 845 24.95 14 57.2 58 6 42.8
10:35 1016 30 846 24.98 14 57.2 57 5.8 42.4
10:40 1016 30 846 24.98 14.2 57.6 53 4.9 40.9
10:45 1016 30 846 24.98 14.1 57.4 54 5.1 41.2
10:50 1016 30 846 24.98 14.1 57.5 54 5.1 41.1
10:55 1017 30.03 846 24.98 14.2 57.5 54 5.1 41.1
11:00 1017 30.03 846 24.98 14.3 57.7 53 4.9 40.8
11:05 1017 30.03 846 24.98 14.7 58.4 50 4.4 39.9
11:10 1016 30 846 24.98 15.2 59.4 47 3.9 39.1
11:15 1016 30 846 24.98 16 60.8 43 3.5 38.3
11:20 1016 30 846 24.98 16.5 61.7 43 3.9 39
11:25 1016 30 846 24.98 16.4 61.6 44 4.4 39.9
11:30 1017 30.03 846 24.98 16 60.9 41 2.8 37.1
11:35 1017 30.03 846 24.98 16.1 60.9 41 2.8 37.1
11:40 1016 30 846 24.98 16.3 61.4 38 1.9 35.5
11:45 1016 30 846 24.98 17.4 63.2 32 0.8 33.4
11:50 1016 30 846 24.98 17.7 63.8 34 1.9 35.4
11:55 1016 30 846 24.98 17.4 63.3 40 3.6 38.5
12:00 1017 30.03 846 24.98 16.6 61.9 42 3.7 38.7
12:05 1017 30.03 846 24.98 16.9 62.5 36 2 35.5
12:10 1017 30.03 846 24.98 17.4 63.3 34 1.3 34.3
12:15 1017 30.03 846 24.98 17.5 63.5 35 2 35.5
12:20 1017 30.03 846 24.98 17.6 63.6 30 0 32.1
12:25 1017 30.03 846 24.98 18 64.3 29 -0.1 31.9
12:30 1017 30.03 846 24.98 17.9 64.3 30 0.3 32.5
12:35 1017 30.03 846 24.98 17.5 63.4 29 -0.6 30.9
12:40 1016 30 846 24.98 17.6 63.7 29 -0.5 31.1
12:45 1016 30 846 24.98 18.6 65.4 24 -2 28.4
12:50 1016 30 845 24.95 18.7 65.6 23 -3 26.6
12:55 1016 30 845 24.95 18.3 65 23 -3.3 26
13:00 1016 30 845 24.95 18.3 65 22 -3.6 25.6
13:05 1016 30 845 24.95 18.7 65.6 22 -3.1 26.5
13:10 1016 30 845 24.95 18.7 65.7 23 -2.6 27.3
13:15 1016 30 845 24.95 19 66.2 23 -2.4 27.7
13:20 1016 30 845 24.95 18.8 65.9 23 -2.5 27.4
13:25 1016 30 845 24.95 18.7 65.6 23 -2.7 27.2
13:30 1016 30 845 24.95 18.6 65.5 23 -3.1 26.5
13:35 1016 30 845 24.95 18.3 65 23 -3 26.6
13:40 1016 30 845 24.95 18.6 65.6 23 -2.9 26.9
13:45 1016 30 845 24.95 18.9 66.1 23 -2.6 27.2
13:50 1016 30 845 24.95 19 66.2 22 -3.2 26.2
13:55 1016 30 845 24.95 18.6 65.5 23 -2.6 27.3
14:00 1016 30 845 24.95 19 66.2 20 -4 24.8
14:05 1016 30 845 24.95 19 66.1 21 -3.9 24.9
14:10 1016 30 845 24.95 18.9 65.9 21 -3.9 24.9
14:15 1016 30 845 24.95 19.5 67.1 19 -4.7 23.6
14:20 1016 30 845 24.95 19.1 66.3 20 -4.4 24.1
14:25 1016 30 845 24.95 19.1 66.4 19 -4.9 23.2
14:30 1016 30 845 24.95 19.1 66.4 19 -4.6 23.7
14:35 1016 30 846 24.98 19.1 66.5 19 -4.6 23.8
14:40 1016 30 846 24.98 19.2 66.6 21 -3.2 26.2
14:45 1016 30 846 24.98 19.2 66.5 20 -4.5 23.9
14:50 1016 30 846 24.98 19.5 67 19 -4.7 23.5
14:55 1016 30 846 24.98 19.7 67.5 17 -5.8 21.5
15:00 1016 30 846 24.98 19.4 66.8 18 -5.4 22.3
15:05 1016 30 846 24.98 19.7 67.5 19 -4.3 24.2
15:10 1016 30 846 24.98 19.7 67.4 17 -6 21.2
15:15 1016 30 846 24.98 19.7 67.5 17 -5.5 22.1
15:20 1016 30 846 24.98 20 67.9 15 -7.1 19.2
15:25 1017 30.03 846 24.98 20.1 68.1 15 -7.6 18.3
15:30 1017 30.03 846 24.98 20.1 68.1 17 -5.6 21.9
15:35 1016 30 846 24.98 20 68 15 -7 19.3
15:40 1016 30 846 24.98 19.8 67.7 16 -6.4 20.5
15:45 1016 30 846 24.98 19.6 67.2 16 -6.8 19.7
15:50 1017 30.03 846 24.98 19.9 67.9 16 -6.7 19.9
15:55 1016 30 846 24.98 20.1 68.1 15 -7.1 19.3
16:00 1017 30.03 846 24.98 20.2 68.4 15 -7 19.4
16:05 1016 30 846 24.98 20.3 68.5 15 -7 19.5
16:10 1016 30 846 24.98 20 67.9 15 -7.1 19.1
16:15 1016 30 846 24.98 19.9 67.8 15 -7.2 19
16:20 1016 30 846 24.98 20 68 15 -7.6 18.3
16:25 1016 30 846 24.98 19.8 67.7 15 -7.3 18.9
16:30 1016 30 846 24.98 20.2 68.4 15 -7.2 19
16:35 1016 30 846 24.98 20.2 68.3 16 -6.7 20
16:40 1016 30 846 24.98 20.2 68.3 15 -6.9 19.6
16:45 1016 30 846 24.98 20.1 68.1 14 -8.1 17.4
16:50 1016 30 846 24.98 19.9 67.7 15 -7.5 18.5
16:55 1016 30 846 24.98 19.8 67.6 15 -7.9 17.7
17:00 1017 30.03 846 24.98 19.9 67.8 14 -8.3 17
17:05 1017 30.03 846 24.98 19.9 67.9 15 -7.5 18.5
17:10 1017 30.03 846 24.98 20.3 68.5 14 -8.1 17.5
17:15 1017 30.03 846 24.98 20 68.1 14 -8.4 16.9
17:20 1017 30.03 846 24.98 20 68.1 13 -8.7 16.3
17:25 1017 30.03 846 24.98 20 68.1 13 -8.9 16
17:30 1017 30.03 846 24.98 20 68 13 -8.9 16
17:35 1017 30.03 846 24.98 19.9 67.8 14 -8.5 16.7
17:40 1017 30.03 846 24.98 20.3 68.6 14 -7.9 17.8
17:45 1017 30.03 846 24.98 20.1 68.3 14 -8.5 16.7
17:50 1017 30.03 846 24.98 20.1 68.1 13 -8.7 16.4
17:55 1017 30.03 846 24.98 19.9 67.8 14 -8.2 17.2
18:00 1017 30.03 846 24.98 19.9 67.9 14 -8.7 16.4
18:05 1017 30.03 846 24.98 19.6 67.3 14 -8.8 16.1
18:10 1017 30.03 846 24.98 19.7 67.4 14 -8.1 17.5
18:15 1017 30.03 846 24.98 19.8 67.6 14 -8.8 16.1
18:20 1017 30.03 847 25.01 19.6 67.3 13 -9.1 15.6
18:25 1017 30.03 847 25.01 19.7 67.4 13 -9.3 15.3
18:30 1018 30.06 847 25.01 19.4 66.9 14 -8.7 16.3
18:35 1018 30.06 847 25.01 19 66.1 15 -8.2 17.3
18:40 1018 30.06 847 25.01 18.8 65.8 15 -8.4 16.9
18:45 1017 30.03 847 25.01 18.5 65.4 14 -9.3 15.2
18:50 1018 30.06 847 25.01 18.4 65.1 15 -8.6 16.5
18:55 1018 30.06 847 25.01 18.3 65 14 -9.3 15.3
19:00 1018 30.06 847 25.01 18.2 64.8 15 -8.6 16.6
19:05 1018 30.06 847 25.01 18.2 64.7 16 -7.6 18.4
19:10 1018 30.06 847 25.01 18 64.3 16 -7.8 18
19:15 1018 30.06 847 25.01 17.9 64.1 16 -8.3 17
19:20 1018 30.06 847 25.01 17.6 63.7 17 -7.9 17.8
19:25 1017 30.03 847 25.01 17.3 63.2 19 -6.4 20.4
19:30 1017 30.03 847 25.01 17.1 62.7 19 -6.4 20.5
19:35 1017 30.03 846 24.98 16.9 62.4 19 -6.8 19.8
19:40 1017 30.03 846 24.98 16.7 62.1 19 -6.7 19.9
19:45 1017 30.03 846 24.98 16.7 62 20 -6.5 20.4
19:50 1017 30.03 846 24.98 16.5 61.6 20 -6.4 20.5
19:55 1017 30.03 846 24.98 16.1 61 21 -5.9 21.4
20:00 1017 30.03 847 25.01 15.7 60.3 21 -6.3 20.7
20:05 1018 30.06 847 25.01 15.4 59.6 22 -6 21.2
20:10 1018 30.06 847 25.01 15.1 59.1 23 -6 21.2
20:15 1018 30.06 847 25.01 14.8 58.6 27 -4 24.8
20:20 1018 30.06 847 25.01 14.4 58 26 -4.9 23.2
20:25 1018 30.06 847 25.01 14.6 58.2 21 -7.6 18.4
20:30 1018 30.06 847 25.01 15.1 59.2 22 -6.5 20.4
20:35 1018 30.06 847 25.01 15.1 59.2 21 -7.1 19.1
20:40 1018 30.06 847 25.01 15 59.1 22 -6.7 19.9
20:45 1018 30.06 847 25.01 15.1 59.1 21 -7.3 18.9
20:50 1018 30.06 847 25.01 15.1 59.1 20 -7.4 18.8
20:55 1018 30.06 847 25.01 14.9 58.9 20 -7.6 18.3
21:00 1018 30.06 847 25.01 14.9 58.8 21 -7 19.4
21:05 1018 30.06 847 25.01 14.7 58.4 23 -6.4 20.5
21:10 1018 30.06 847 25.01 14.7 58.5 23 -6.4 20.5
21:15 1018 30.06 847 25.01 14.7 58.5 24 -5.7 21.8
21:20 1018 30.06 847 25.01 13.7 56.6 32 -2.6 27.3
21:25 1018 30.06 847 25.01 11.8 53.3 35 -3.1 26.5
21:30 1018 30.06 847 25.01 11.5 52.7 34 -3.8 25.1
21:35 1018 30.06 847 25.01 11.4 52.5 35 -3.3 26
21:40 1018 30.06 847 25.01 11 51.9 33 -4.4 24
21:45 1018 30.06 847 25.01 10.9 51.7 37 -3.2 26.2
21:50 1018 30.06 847 25.01 10.3 50.5 40 -2.8 26.9
21:55 1018 30.06 847 25.01 10.2 50.3 36 -4.1 24.6
22:00 1018 30.06 847 25.01 10.5 50.9 35 -4.3 24.3
22:05 1018 30.06 847 25.01 10.8 51.4 33 -4.6 23.7
22:10 1018 30.06 847 25.01 10.9 51.7 33 -4.9 23.3
22:15 1018 30.06 847 25.01 10.8 51.4 35 -4 24.7
22:20 1018 30.06 847 25.01 10.4 50.7 35 -4.5 24
22:25 1018 30.06 847 25.01 10.5 51 34 -4.7 23.5
22:30 1018 30.06 847 25.01 10.6 51 35 -4.1 24.7
22:35 1018 30.06 847 25.01 10.2 50.4 36 -4.1 24.6
22:40 1018 30.06 847 25.01 10.1 50.1 36 -4.1 24.5
22:45 1018 30.06 847 25.01 10.2 50.3 35 -4.7 23.5
22:50 1018 30.06 847 25.01 10.4 50.7 35 -4.4 24.1
22:55 1018 30.06 847 25.01 10.2 50.3 36 -4.1 24.6
23:00 1018 30.06 847 25.01 9.7 49.4 37 -4.1 24.6
23:05 1018 30.06 847 25.01 9.3 48.7 39 -3.8 25.2
23:10 1018 30.06 847 25.01 8.9 48.1 41 -3.7 25.3
23:15 1018 30.06 847 25.01 9 48.2 36 -5.3 22.5
23:20 1018 30.06 847 25.01 9.6 49.2 33 -5.7 21.7
23:25 1018 30.06 847 25.01 9.5 49.2 35 -5.2 22.6
23:30 1018 30.06 847 25.01 9.4 48.9 35 -5.2 22.7
23:35 1018 30.06 847 25.01 9.2 48.6 37 -4.7 23.5
23:40 1018 30.06 847 25.01 9 48.1 37 -5 23
23:45 1018 30.06 847 25.01 9 48.2 37 -4.9 23.1
23:50 1018 30.06 847 25.01 9 48.2 37 -5.1 22.9
23:55 1018 30.06 847 25.01 9 48.3 37 -5 23
24:00 1018 30.06 847 25.01 8.9 48.1 37 -4.9 23.2